createdAt,value
2023-09-25T00:00:56.072Z,3.60
2023-09-25T00:06:14.646Z,4.20
2023-09-25T00:11:18.112Z,5.40
2023-09-25T00:16:27.492Z,4.00
2023-09-25T00:21:31.504Z,3.80
2023-09-25T00:26:37.492Z,4.00
2023-09-25T00:31:40.862Z,4.70
2023-09-25T00:36:46.373Z,3.60
2023-09-25T00:41:49.960Z,4.30
2023-09-25T00:46:56.021Z,6.40
2023-09-25T00:52:00.590Z,4.10
2023-09-25T00:57:07.579Z,4.90
2023-09-25T01:02:11.967Z,6.50
2023-09-25T01:07:18.059Z,5.90
2023-09-25T01:12:22.268Z,5.30
2023-09-25T01:17:26.300Z,7.90
2023-09-25T01:22:31.979Z,5.10
2023-09-25T01:27:35.371Z,7.00
2023-09-25T01:32:40.342Z,4.60
2023-09-25T01:37:46.222Z,5.90
2023-09-25T01:42:49.740Z,6.20
2023-09-25T01:47:56.694Z,6.10
2023-09-25T01:53:09.152Z,7.60
2023-09-25T01:58:14.984Z,5.40
2023-09-25T02:03:31.657Z,4.60
2023-09-25T02:08:35.628Z,3.90
2023-09-25T02:13:44.007Z,5.20
2023-09-25T02:18:52.968Z,6.50
2023-09-25T02:23:56.405Z,5.10
2023-09-25T02:28:59.887Z,4.70
2023-09-25T02:34:03.688Z,4.40
2023-09-25T02:39:10.219Z,3.60
2023-09-25T02:44:16.205Z,4.60
2023-09-25T02:49:30.349Z,4.10
2023-09-25T02:54:33.754Z,4.80
2023-09-25T02:59:40.297Z,4.90
2023-09-25T03:04:45.004Z,4.10
2023-09-25T03:09:48.553Z,4.20
2023-09-25T03:14:52.668Z,5.20
2023-09-25T03:19:55.926Z,3.90
2023-09-25T03:25:01.698Z,5.30
2023-09-25T03:30:06.937Z,5.20
2023-09-25T03:35:12.014Z,6.30
2023-09-25T03:40:18.462Z,4.60
2023-09-25T03:45:24.308Z,10.00
2023-09-25T03:50:29.691Z,7.50
2023-09-25T03:55:33.268Z,8.20
2023-09-25T04:00:39.083Z,6.90
2023-09-25T04:05:42.403Z,6.70
2023-09-25T04:10:45.737Z,6.70
2023-09-25T04:15:50.178Z,7.30
2023-09-25T04:20:53.510Z,6.00
2023-09-25T04:26:02.119Z,6.30
2023-09-25T04:31:06.817Z,5.60
2023-09-25T04:36:12.183Z,5.60
2023-09-25T04:41:15.690Z,5.70
2023-09-25T04:46:19.324Z,5.50
2023-09-25T04:51:22.601Z,7.60
2023-09-25T04:56:25.769Z,7.50
2023-09-25T05:01:32.115Z,6.30
2023-09-25T05:06:35.684Z,5.30
2023-09-25T05:11:39.145Z,4.60
2023-09-25T05:16:51.228Z,5.50
2023-09-25T05:21:55.004Z,5.00
2023-09-25T05:32:10.763Z,5.40
2023-09-25T05:37:14.129Z,5.50
2023-09-25T05:42:17.840Z,6.50
2023-09-25T05:47:39.873Z,3.90
2023-09-25T05:52:48.313Z,6.30
2023-09-25T05:57:57.076Z,4.90
2023-09-25T06:03:00.625Z,3.80
2023-09-25T06:08:07.211Z,4.70
2023-09-25T06:13:11.114Z,5.00
2023-09-25T06:18:15.017Z,4.90
2023-09-25T06:23:18.267Z,4.10
2023-09-25T06:28:25.323Z,4.90
2023-09-25T06:33:30.263Z,4.90
2023-09-25T06:38:33.555Z,5.10
2023-09-25T06:43:37.548Z,4.20
2023-09-25T06:48:40.764Z,6.40
2023-09-25T06:53:44.300Z,5.10
2023-09-25T06:58:47.686Z,5.60
2023-09-25T07:03:51.468Z,4.30
2023-09-25T07:08:55.193Z,4.40
2023-09-25T07:14:08.011Z,4.90
2023-09-25T07:19:12.317Z,5.30
2023-09-25T07:24:15.778Z,4.50
2023-09-25T07:29:38.743Z,3.70
2023-09-25T07:34:44.388Z,4.90
2023-09-25T07:39:47.875Z,3.20
2023-09-25T07:44:51.197Z,3.20
2023-09-25T07:49:55.266Z,5.80
2023-09-25T07:54:58.528Z,4.70
2023-09-25T08:00:11.323Z,6.60
2023-09-25T08:05:22.963Z,2.50
2023-09-25T08:10:26.344Z,4.60
2023-09-25T08:15:29.827Z,3.80
2023-09-25T08:20:34.017Z,5.70
2023-09-25T08:25:37.309Z,2.40
2023-09-25T08:30:41.218Z,2.90
2023-09-25T08:35:44.681Z,3.10
2023-09-25T08:40:51.560Z,2.50
2023-09-25T08:45:56.636Z,3.60
2023-09-25T08:51:00.090Z,3.50
2023-09-25T08:56:03.386Z,2.50
2023-09-25T09:01:06.876Z,2.60
2023-09-25T09:06:10.195Z,2.30
2023-09-25T09:11:14.619Z,2.50
2023-09-25T09:16:20.667Z,2.50
2023-09-25T09:21:26.530Z,5.80
2023-09-25T09:26:30.326Z,3.90
2023-09-25T09:31:34.128Z,2.80
2023-09-25T09:36:38.581Z,4.30
2023-09-25T09:41:45.627Z,3.40
2023-09-25T09:46:51.818Z,4.10
2023-09-25T09:51:55.461Z,3.50
2023-09-25T09:57:01.848Z,3.50
2023-09-25T10:02:07.408Z,4.50
2023-09-25T10:07:11.380Z,2.90
2023-09-25T10:12:14.747Z,2.30
2023-09-25T10:17:18.292Z,2.50
2023-09-25T10:22:30.674Z,5.10
2023-09-25T10:27:38.009Z,3.30
2023-09-25T10:32:50.564Z,2.10
2023-09-25T10:43:58.283Z,3.50
2023-09-25T10:49:02.130Z,2.20
2023-09-25T10:54:05.481Z,4.60
2023-09-25T10:59:08.880Z,4.60
2023-09-25T11:04:12.608Z,2.30
2023-09-25T11:09:19.970Z,3.10
2023-09-25T11:14:23.427Z,2.70
2023-09-25T11:19:26.644Z,2.20
2023-09-25T11:24:32.301Z,4.00
2023-09-25T11:29:37.105Z,2.60
2023-09-25T11:34:40.728Z,2.70
2023-09-25T11:39:45.035Z,3.00
2023-09-25T11:44:48.333Z,2.10
2023-09-25T11:49:53.113Z,2.40
2023-09-25T11:54:56.609Z,4.80
2023-09-25T12:00:00.114Z,2.60
2023-09-25T12:05:06.964Z,2.80
2023-09-25T12:10:18.247Z,2.60
2023-09-25T12:15:23.113Z,4.30
2023-09-25T12:20:27.368Z,3.90
2023-09-25T12:25:31.647Z,3.40
2023-09-25T12:30:35.361Z,2.00
2023-09-25T12:35:42.498Z,3.50
2023-09-25T12:40:45.959Z,2.30
2023-09-25T12:45:49.228Z,3.70
2023-09-25T12:50:52.875Z,4.10
2023-09-25T12:55:58.192Z,3.30
2023-09-25T13:01:01.701Z,5.70
2023-09-25T13:06:07.749Z,3.80
2023-09-25T13:11:10.901Z,3.60
2023-09-25T13:16:14.132Z,3.10
2023-09-25T13:21:18.029Z,3.40
2023-09-25T13:26:26.187Z,3.40
2023-09-25T13:31:29.582Z,3.10
2023-09-25T13:36:33.431Z,2.50
2023-09-25T13:41:36.669Z,3.70
2023-09-25T13:46:39.994Z,3.30
2023-09-25T13:51:43.313Z,3.40
2023-09-25T13:56:46.705Z,2.50
2023-09-25T14:01:50.790Z,2.30
2023-09-25T14:06:55.132Z,2.70
2023-09-25T14:11:58.792Z,5.40
2023-09-25T14:17:02.159Z,3.20
2023-09-25T14:22:05.875Z,3.80
2023-09-25T14:27:11.127Z,3.10
2023-09-25T14:32:14.783Z,1.80
2023-09-25T14:37:17.901Z,2.60
2023-09-25T14:42:21.281Z,5.10
2023-09-25T14:47:24.388Z,3.70
2023-09-25T14:52:27.561Z,2.70
2023-09-25T14:57:30.984Z,3.00
2023-09-25T15:02:34.805Z,4.10
2023-09-25T15:07:38.148Z,2.30
2023-09-25T15:12:41.374Z,3.80
2023-09-25T15:17:49.757Z,4.00
2023-09-25T15:22:53.016Z,6.80
2023-09-25T15:27:56.211Z,3.00
2023-09-25T15:32:59.436Z,3.80
2023-09-25T15:38:02.937Z,3.20
2023-09-25T15:43:06.119Z,4.10
2023-09-25T15:48:09.303Z,2.70
2023-09-25T15:53:13.201Z,4.20
2023-09-25T15:58:16.423Z,5.80
2023-09-25T16:03:19.728Z,4.10
2023-09-25T16:08:23.206Z,2.90
2023-09-25T16:13:26.437Z,7.80
2023-09-25T16:18:29.706Z,2.80
2023-09-25T16:23:33.266Z,3.20
2023-09-25T16:28:36.572Z,3.80
2023-09-25T16:33:39.846Z,9.30
2023-09-25T16:38:43.131Z,10.30
2023-09-25T16:43:46.292Z,5.80
2023-09-25T16:48:49.524Z,4.40
2023-09-25T16:53:52.954Z,4.30
2023-09-25T16:58:56.111Z,6.30
2023-09-25T17:04:00.615Z,6.40
2023-09-25T17:09:04.169Z,4.20
2023-09-25T17:14:09.622Z,6.60
2023-09-25T17:19:12.916Z,6.80
2023-09-25T17:24:16.379Z,4.60
2023-09-25T17:29:19.725Z,6.50
2023-09-25T17:34:24.339Z,8.60
2023-09-25T17:39:27.822Z,5.70
2023-09-25T17:44:31.166Z,5.60
2023-09-25T17:49:34.370Z,6.90
2023-09-25T17:54:37.589Z,5.10
2023-09-25T17:59:41.223Z,4.60
2023-09-25T18:04:45.237Z,4.70
2023-09-25T18:09:49.948Z,4.00
2023-09-25T18:14:53.387Z,4.20
2023-09-25T18:19:56.687Z,6.30
2023-09-25T18:24:59.891Z,4.70
2023-09-25T18:30:03.346Z,5.00
2023-09-25T18:35:06.650Z,5.00
2023-09-25T18:40:10.814Z,6.40
2023-09-25T18:45:14.393Z,5.90
2023-09-25T18:50:17.678Z,8.50
2023-09-25T18:55:20.997Z,7.00
2023-09-25T19:00:25.323Z,4.50
2023-09-25T19:05:28.718Z,4.60
2023-09-25T19:10:34.812Z,7.60
2023-09-25T19:15:38.647Z,4.60
2023-09-25T19:20:42.178Z,3.50
2023-09-25T19:25:46.453Z,4.60
2023-09-25T19:30:49.751Z,6.10
2023-09-25T19:35:53.020Z,4.00
2023-09-25T19:40:56.470Z,5.50
2023-09-25T19:45:59.830Z,9.20
2023-09-25T19:51:03.504Z,8.90
2023-09-25T19:56:07.609Z,5.40
2023-09-25T20:01:12.868Z,4.70
2023-09-25T20:06:16.223Z,6.40
2023-09-25T20:11:19.375Z,4.80
2023-09-25T20:16:22.734Z,7.40
2023-09-25T20:21:27.245Z,4.30
2023-09-25T20:26:30.774Z,6.80
2023-09-25T20:31:34.034Z,7.80
2023-09-25T20:36:37.502Z,4.90
2023-09-25T20:41:40.785Z,5.20
2023-09-25T20:46:49.559Z,6.40
2023-09-25T20:51:54.039Z,8.40
2023-09-25T20:56:57.403Z,9.00
2023-09-25T21:02:00.727Z,7.40
2023-09-25T21:07:04.402Z,6.80
2023-09-25T21:12:09.230Z,8.30
2023-09-25T21:17:12.645Z,5.90
2023-09-25T21:22:15.876Z,7.90
2023-09-25T21:27:19.680Z,7.00
2023-09-25T21:32:23.025Z,5.40
2023-09-25T21:37:26.330Z,7.50
2023-09-25T21:42:29.584Z,7.30
2023-09-25T21:47:32.999Z,6.10
2023-09-25T21:52:38.680Z,7.10
2023-09-25T21:57:45.153Z,6.40
2023-09-25T22:02:48.540Z,6.30
2023-09-25T22:07:54.172Z,7.40
2023-09-25T22:12:57.475Z,10.40
2023-09-25T22:18:01.023Z,8.60
2023-09-25T22:23:05.872Z,7.30
2023-09-25T22:28:09.178Z,8.90
2023-09-25T22:33:12.901Z,8.60
2023-09-25T22:38:16.567Z,6.60
2023-09-25T22:43:19.890Z,9.30
2023-09-25T22:48:23.383Z,7.70
2023-09-25T22:53:26.837Z,9.30
2023-09-25T22:58:30.927Z,7.20
2023-09-25T23:03:34.812Z,8.60
2023-09-25T23:08:38.494Z,8.30
2023-09-25T23:13:41.894Z,6.80
2023-09-25T23:18:45.086Z,5.90
2023-09-25T23:23:49.053Z,7.40
2023-09-25T23:28:52.979Z,7.60
2023-09-25T23:33:56.269Z,6.70
2023-09-25T23:38:59.666Z,7.70
2023-09-25T23:44:03.059Z,5.80
2023-09-25T23:49:06.347Z,7.10
2023-09-25T23:54:10.014Z,8.50
2023-09-25T23:59:13.157Z,7.00
